Time;durP1;ratioP1;P1;durP2;ratioP2;P2;SDS_P1;SDS_P2;PMS_P1;PMS_P2;Temp;Humidity;BMP_temperature;BMP_pressure;BME280_temperature;BME280_humidity;BME280_pressure;Samples;Min_cycle;Max_cycle;Signal;HPM_P1;HPM_P2
2023/05/12 00:02:05;;;;;;;7.55;4.45;;;;;;;;;;5078325;28;20020;-90
2023/05/12 00:04:31;;;;;;;8.38;4.82;;;;;;;;;;5083868;28;20038;-86
2023/05/12 00:06:56;;;;;;;8.40;4.53;;;;;;;;;;5082612;28;20111;-88
2023/05/12 00:09:22;;;;;;;9.48;5.75;;;;;;;;;;5084732;28;20052;-87
2023/05/12 00:11:48;;;;;;;8.32;4.30;;;;;;;;;;5079837;28;20021;-90
2023/05/12 00:14:14;;;;;;;7.07;4.28;;;;;;;;;;5088804;28;20024;-88
2023/05/12 00:16:39;;;;;;;7.82;4.65;;;;;;;;;;5083188;28;20119;-88
2023/05/12 00:19:05;;;;;;;9.70;5.30;;;;;;;;;;5089527;28;20024;-87
2023/05/12 00:21:33;;;;;;;8.40;5.20;;;;;;;;;;5086695;28;20017;-88
2023/05/12 00:23:58;;;;;;;6.60;4.25;;;;;;;;;;5084207;28;20024;-85
2023/05/12 00:26:24;;;;;;;7.90;4.97;;;;;;;;;;5084621;28;20043;-87
2023/05/12 00:28:50;;;;;;;7.30;4.50;;;;;;;;;;5084120;28;20521;-86
2023/05/12 00:31:15;;;;;;;7.43;5.05;;;;;;;;;;5073904;28;20036;-87
2023/05/12 00:33:44;;;;;;;7.30;4.60;;;;;;;;;;5088226;28;20020;-85
2023/05/12 00:36:09;;;;;;;10.88;4.95;;;;;;;;;;5076054;28;20046;-84
2023/05/12 00:38:36;;;;;;;9.23;5.13;;;;;;;;;;5079529;28;20154;-82
2023/05/12 00:41:03;;;;;;;8.60;5.03;;;;;;;;;;5085435;28;20108;-83
2023/05/12 00:43:28;;;;;;;6.85;4.47;;;;;;;;;;5084444;28;20026;-83
2023/05/12 00:45:56;;;;;;;12.85;5.55;;;;;;;;;;5083378;28;20114;-82
2023/05/12 00:48:22;;;;;;;6.63;4.32;;;;;;;;;;5084191;28;20050;-85
2023/05/12 00:50:48;;;;;;;7.35;4.78;;;;;;;;;;5081991;28;20032;-80
2023/05/12 00:53:18;;;;;;;12.15;6.18;;;;;;;;;;5079604;28;20028;-82
2023/05/12 00:55:44;;;;;;;10.18;4.95;;;;;;;;;;5075417;28;20028;-80
2023/05/12 00:58:09;;;;;;;8.43;5.35;;;;;;;;;;5085648;28;20030;-83
2023/05/12 01:00:35;;;;;;;9.60;5.45;;;;;;;;;;5077225;28;20036;-81
2023/05/12 01:03:00;;;;;;;8.45;5.05;;;;;;;;;;5083744;28;20020;-82
2023/05/12 01:05:30;;;;;;;8.60;5.60;;;;;;;;;;5113274;27;20028;-80
2023/05/12 01:07:58;;;;;;;;;;;;;;;;;;5079970;28;20029;-82
2023/05/12 01:10:24;;;;;;;8.60;5.03;;;;;;;;;;5082843;28;19923;-80
2023/05/12 01:12:49;;;;;;;8.10;5.10;;;;;;;;;;5082410;28;20115;-81
2023/05/12 01:15:16;;;;;;;9.35;4.75;;;;;;;;;;5080806;28;20089;-81
2023/05/12 01:17:53;;;;;;;8.77;4.20;;;;;;;;;;5076309;28;20123;-81
2023/05/12 01:20:21;;;;;;;9.55;6.05;;;;;;;;;;5079304;28;20074;-79
2023/05/12 01:22:51;;;;;;;8.15;5.15;;;;;;;;;;5086616;28;20032;-82
2023/05/12 01:25:21;;;;;;;8.95;4.75;;;;;;;;;;5077271;28;20111;-83
2023/05/12 01:27:48;;;;;;;8.40;4.50;;;;;;;;;;5082610;28;20473;-82
2023/05/12 01:30:20;;;;;;;9.55;5.45;;;;;;;;;;5076460;28;20032;-81
2023/05/12 01:32:45;;;;;;;12.52;6.63;;;;;;;;;;5108173;27;20031;-80
2023/05/12 01:35:11;;;;;;;6.53;4.20;;;;;;;;;;5078833;28;20024;-80
2023/05/12 01:37:36;;;;;;;8.05;5.00;;;;;;;;;;5076302;28;20048;-82
2023/05/12 01:40:02;;;;;;;7.25;4.45;;;;;;;;;;5087267;28;20024;-80
2023/05/12 01:42:28;;;;;;;8.95;4.93;;;;;;;;;;5074125;28;20032;-81
2023/05/12 01:44:53;;;;;;;9.10;4.47;;;;;;;;;;5077696;28;20105;-82
2023/05/12 01:47:20;;;;;;;6.45;3.92;;;;;;;;;;5082233;28;20029;-82
2023/05/12 01:49:46;;;;;;;8.35;3.83;;;;;;;;;;5076680;28;20034;-82
2023/05/12 01:52:11;;;;;;;9.18;4.90;;;;;;;;;;5076200;28;20024;-81
2023/05/12 01:54:40;;;;;;;8.95;5.18;;;;;;;;;;5077393;28;20511;-83
2023/05/12 01:57:05;;;;;;;7.28;4.40;;;;;;;;;;5079353;28;20656;-82
2023/05/12 01:59:30;;;;;;;8.73;5.25;;;;;;;;;;5086324;28;20024;-81
2023/05/12 02:01:58;;;;;;;8.93;5.10;;;;;;;;;;5083077;28;20032;-82
2023/05/12 02:04:24;;;;;;;9.32;4.85;;;;;;;;;;5080474;28;20606;-83
2023/05/12 02:06:50;;;;;;;8.55;5.38;;;;;;;;;;5077106;28;20022;-81
2023/05/12 02:09:21;;;;;;;7.00;4.28;;;;;;;;;;5080509;28;20035;-83
2023/05/12 02:11:47;;;;;;;7.82;4.68;;;;;;;;;;5082725;28;20016;-85
2023/05/12 02:14:15;;;;;;;6.82;4.05;;;;;;;;;;5076722;28;20039;-81
2023/05/12 02:16:51;;;;;;;7.13;4.47;;;;;;;;;;5080920;28;20044;-83
2023/05/12 02:19:18;;;;;;;6.38;3.88;;;;;;;;;;5083001;28;20472;-84
2023/05/12 02:21:46;;;;;;;5.65;3.10;;;;;;;;;;5078205;28;20035;-85
2023/05/12 02:24:12;;;;;;;6.13;3.78;;;;;;;;;;5082648;28;20111;-84
2023/05/12 02:26:37;;;;;;;5.43;3.30;;;;;;;;;;5080020;28;20569;-83
2023/05/12 02:29:03;;;;;;;9.05;4.07;;;;;;;;;;5080994;28;20083;-82
2023/05/12 02:31:28;;;;;;;7.30;3.50;;;;;;;;;;5077053;28;20495;-83
2023/05/12 02:33:54;;;;;;;8.05;4.40;;;;;;;;;;5076683;28;20377;-82
2023/05/12 02:36:20;;;;;;;4.63;2.90;;;;;;;;;;5082110;28;20036;-84
2023/05/12 02:38:45;;;;;;;5.45;3.35;;;;;;;;;;5077964;28;20048;-84
2023/05/12 02:41:10;;;;;;;7.20;2.83;;;;;;;;;;5085040;28;20027;-82
2023/05/12 02:43:36;;;;;;;5.07;3.30;;;;;;;;;;5088633;28;20028;-81
2023/05/12 02:46:01;;;;;;;6.10;3.22;;;;;;;;;;5078558;28;20103;-82
2023/05/12 02:48:27;;;;;;;4.43;2.55;;;;;;;;;;5074554;28;20021;-83
2023/05/12 02:50:53;;;;;;;4.55;3.03;;;;;;;;;;5077696;28;20379;-84
2023/05/12 02:53:18;;;;;;;6.20;3.00;;;;;;;;;;5084856;28;20077;-83
2023/05/12 02:55:44;;;;;;;4.53;2.88;;;;;;;;;;5075048;28;20289;-83
2023/05/12 02:58:09;;;;;;;4.57;2.88;;;;;;;;;;5081615;28;20028;-83
2023/05/12 03:00:35;;;;;;;3.97;2.10;;;;;;;;;;5086872;28;20055;-82
2023/05/12 03:03:05;;;;;;;10.65;3.22;;;;;;;;;;5075752;28;20025;-81
2023/05/12 03:05:31;;;;;;;4.55;2.88;;;;;;;;;;5079798;28;20021;-83
2023/05/12 03:07:57;;;;;;;5.00;2.75;;;;;;;;;;5076675;28;20126;-81
2023/05/12 03:10:22;;;;;;;4.10;2.22;;;;;;;;;;5075082;28;20036;-81
2023/05/12 03:12:48;;;;;;;11.88;2.95;;;;;;;;;;5078681;28;20235;-82
2023/05/12 03:15:13;;;;;;;3.65;2.60;;;;;;;;;;5088262;28;20024;-84
2023/05/12 03:17:41;;;;;;;6.32;2.85;;;;;;;;;;5076035;28;20375;-84
2023/05/12 03:20:11;;;;;;;6.35;3.35;;;;;;;;;;5076250;28;20032;-82
2023/05/12 03:22:38;;;;;;;7.00;3.47;;;;;;;;;;5078233;28;20024;-84
2023/05/12 03:25:05;;;;;;;6.10;3.13;;;;;;;;;;5078307;28;20028;-84
2023/05/12 03:27:31;;;;;;;4.25;2.63;;;;;;;;;;5081569;28;20059;-81
2023/05/12 03:29:59;;;;;;;5.78;3.10;;;;;;;;;;5078447;28;20027;-82
2023/05/12 03:32:29;;;;;;;4.40;2.60;;;;;;;;;;5077822;28;20024;-83
2023/05/12 03:34:58;;;;;;;5.50;2.60;;;;;;;;;;5072589;28;20102;-84
2023/05/12 03:37:23;;;;;;;6.90;3.00;;;;;;;;;;5074325;28;20036;-82
2023/05/12 03:39:49;;;;;;;8.00;3.83;;;;;;;;;;5072764;28;20024;-83
2023/05/12 03:42:18;;;;;;;4.32;2.75;;;;;;;;;;5072214;28;20029;-84
2023/05/12 03:44:43;;;;;;;3.15;2.20;;;;;;;;;;5077905;28;20021;-83
2023/05/12 03:47:09;;;;;;;6.35;2.10;;;;;;;;;;5072649;28;20688;-81
2023/05/12 03:49:37;;;;;;;5.45;2.95;;;;;;;;;;5077074;28;20032;-80
2023/05/12 03:52:03;;;;;;;4.22;2.10;;;;;;;;;;5076982;28;20380;-82
2023/05/12 03:54:31;;;;;;;3.95;2.33;;;;;;;;;;5079219;28;20025;-83
2023/05/12 03:56:57;;;;;;;5.28;2.95;;;;;;;;;;5076989;28;20033;-83
2023/05/12 03:59:22;;;;;;;3.22;1.75;;;;;;;;;;5084540;28;20028;-83
2023/05/12 04:01:48;;;;;;;4.80;2.90;;;;;;;;;;5082238;28;20028;-83
2023/05/12 04:04:16;;;;;;;6.43;2.45;;;;;;;;;;5079317;28;20495;-82
2023/05/12 04:06:41;;;;;;;4.97;3.10;;;;;;;;;;5083634;28;20028;-82
2023/05/12 04:09:07;;;;;;;4.13;2.08;;;;;;;;;;5109473;27;20028;-81
2023/05/12 04:11:32;;;;;;;4.70;2.92;;;;;;;;;;5080772;28;20106;-81
2023/05/12 04:13:57;;;;;;;4.75;2.60;;;;;;;;;;5078698;28;20422;-82
2023/05/12 04:16:23;;;;;;;4.00;2.42;;;;;;;;;;5086038;28;20031;-82
2023/05/12 04:18:48;;;;;;;5.07;2.33;;;;;;;;;;5082567;28;20468;-81
2023/05/12 04:21:14;;;;;;;3.50;1.95;;;;;;;;;;5088132;28;20434;-81
2023/05/12 04:23:39;;;;;;;4.82;2.42;;;;;;;;;;5074196;28;20451;-82
2023/05/12 04:26:05;;;;;;;5.45;2.85;;;;;;;;;;5080073;28;20518;-80
2023/05/12 04:28:30;;;;;;;4.45;2.80;;;;;;;;;;5076200;28;20365;-81
2023/05/12 04:31:01;;;;;;;1.98;1.50;;;;;;;;;;5081033;28;20052;-82
2023/05/12 04:33:26;;;;;;;4.85;2.58;;;;;;;;;;5080090;28;20468;-81
2023/05/12 04:35:55;;;;;;;6.15;2.88;;;;;;;;;;5077024;28;20031;-82
2023/05/12 04:38:21;;;;;;;3.58;2.13;;;;;;;;;;5075585;28;20089;-81
2023/05/12 04:40:46;;;;;;;6.53;3.05;;;;;;;;;;5079762;28;20020;-79
2023/05/12 04:43:11;;;;;;;5.82;3.72;;;;;;;;;;5074064;28;20092;-81
2023/05/12 04:45:37;;;;;;;5.60;2.97;;;;;;;;;;5076218;28;20028;-79
2023/05/12 04:48:02;;;;;;;6.47;2.47;;;;;;;;;;5076642;28;20028;-80
2023/05/12 04:50:28;;;;;;;3.35;2.38;;;;;;;;;;5077137;28;20031;-81
2023/05/12 04:52:53;;;;;;;5.00;2.45;;;;;;;;;;5076602;28;20031;-81
2023/05/12 04:55:19;;;;;;;4.00;2.30;;;;;;;;;;5076210;28;20452;-82
2023/05/12 04:57:44;;;;;;;5.35;2.55;;;;;;;;;;5078913;28;20119;-81
2023/05/12 05:00:10;;;;;;;4.65;2.03;;;;;;;;;;5074650;28;20483;-82
2023/05/12 05:02:36;;;;;;;3.22;2.08;;;;;;;;;;5073724;28;20024;-80
2023/05/12 05:05:01;;;;;;;4.43;2.70;;;;;;;;;;5081858;28;20028;-83
2023/05/12 05:07:27;;;;;;;4.03;2.40;;;;;;;;;;5078626;28;20025;-79
2023/05/12 05:09:52;;;;;;;5.32;2.47;;;;;;;;;;5077204;28;20031;-80
2023/05/12 05:12:18;;;;;;;5.00;2.63;;;;;;;;;;5084093;28;20102;-79
2023/05/12 05:14:44;;;;;;;3.58;2.30;;;;;;;;;;5079747;28;20038;-82
2023/05/12 05:17:11;;;;;;;5.57;2.30;;;;;;;;;;5072567;28;20527;-79
2023/05/12 05:19:36;;;;;;;4.03;1.88;;;;;;;;;;5071143;28;20032;-81
2023/05/12 05:22:03;;;;;;;7.05;2.90;;;;;;;;;;5073313;28;20044;-81
2023/05/12 05:24:29;;;;;;;5.68;2.53;;;;;;;;;;5082820;28;20027;-82
2023/05/12 05:26:54;;;;;;;4.88;2.67;;;;;;;;;;5079408;28;20872;-84
2023/05/12 05:29:20;;;;;;;6.55;3.22;;;;;;;;;;5075533;28;20036;-80
2023/05/12 05:31:45;;;;;;;4.32;2.65;;;;;;;;;;5075490;28;20021;-80
2023/05/12 05:34:11;;;;;;;3.45;2.13;;;;;;;;;;5082695;28;20032;-81
2023/05/12 05:36:36;;;;;;;5.97;2.88;;;;;;;;;;5079611;28;20070;-80
2023/05/12 05:39:02;;;;;;;3.35;2.47;;;;;;;;;;5078115;28;20040;-85
2023/05/12 05:41:27;;;;;;;3.53;2.17;;;;;;;;;;5080554;28;20031;-82
2023/05/12 05:43:52;;;;;;;5.38;2.80;;;;;;;;;;5071889;28;20115;-81
2023/05/12 05:46:18;;;;;;;4.18;2.15;;;;;;;;;;5079994;28;20135;-82
2023/05/12 05:48:43;;;;;;;7.63;3.45;;;;;;;;;;5072647;28;20028;-82
2023/05/12 05:51:10;;;;;;;4.72;2.97;;;;;;;;;;5071640;28;20029;-85
2023/05/12 05:53:36;;;;;;;9.27;2.85;;;;;;;;;;5074168;28;20081;-80
2023/05/12 05:56:01;;;;;;;4.35;2.42;;;;;;;;;;5081056;28;20020;-80
2023/05/12 05:58:26;;;;;;;2.88;2.13;;;;;;;;;;5077521;28;20024;-81
2023/05/12 06:00:52;;;;;;;5.85;3.33;;;;;;;;;;5073139;28;20740;-81
2023/05/12 06:03:17;;;;;;;7.85;3.30;;;;;;;;;;5075428;28;20089;-83
2023/05/12 06:05:43;;;;;;;6.50;2.88;;;;;;;;;;5077439;28;20025;-82
2023/05/12 06:08:12;;;;;;;5.35;3.20;;;;;;;;;;5073396;28;20046;-81
2023/05/12 06:10:37;;;;;;;6.25;2.97;;;;;;;;;;5072961;28;20043;-82
2023/05/12 06:13:04;;;;;;;4.88;2.80;;;;;;;;;;5069114;28;20135;-82
2023/05/12 06:15:29;;;;;;;4.88;2.90;;;;;;;;;;5066647;28;20037;-82
2023/05/12 06:17:55;;;;;;;7.07;3.58;;;;;;;;;;5071033;28;20055;-81
2023/05/12 06:20:22;;;;;;;6.15;4.13;;;;;;;;;;5074611;28;20078;-82
2023/05/12 06:22:48;;;;;;;5.88;3.70;;;;;;;;;;5070122;28;20431;-80
2023/05/12 06:25:13;;;;;;;5.53;3.22;;;;;;;;;;5076391;28;20059;-82
2023/05/12 06:27:39;;;;;;;5.10;3.45;;;;;;;;;;5079966;28;20103;-84
2023/05/12 06:30:05;;;;;;;6.53;3.90;;;;;;;;;;5077014;28;20108;-84
2023/05/12 06:32:30;;;;;;;5.90;3.63;;;;;;;;;;5069746;28;21272;-84
2023/05/12 06:34:56;;;;;;;5.65;3.70;;;;;;;;;;5073837;28;20028;-81
2023/05/12 06:37:22;;;;;;;7.30;3.20;;;;;;;;;;5068515;28;20040;-83
2023/05/12 06:39:47;;;;;;;5.82;4.15;;;;;;;;;;5076868;28;20085;-84
2023/05/12 06:42:13;;;;;;;6.95;3.53;;;;;;;;;;5071378;28;20028;-82
2023/05/12 06:44:38;;;;;;;4.93;3.15;;;;;;;;;;5072759;28;20028;-83
2023/05/12 06:47:04;;;;;;;7.60;3.88;;;;;;;;;;5099900;28;20094;-83
2023/05/12 06:49:30;;;;;;;7.00;3.28;;;;;;;;;;5073516;28;20029;-85
2023/05/12 06:51:55;;;;;;;5.97;3.50;;;;;;;;;;5069324;28;20491;-84
2023/05/12 06:54:21;;;;;;;5.30;3.13;;;;;;;;;;5075333;28;20062;-83
2023/05/12 06:56:46;;;;;;;6.93;3.83;;;;;;;;;;5073755;28;20024;-83
2023/05/12 06:59:12;;;;;;;6.22;3.00;;;;;;;;;;5076093;28;20036;-84
2023/05/12 07:01:37;;;;;;;8.68;4.05;;;;;;;;;;5069420;28;20025;-87
2023/05/12 07:04:03;;;;;;;7.85;3.70;;;;;;;;;;5081157;28;20028;-84
2023/05/12 07:06:28;;;;;;;6.95;3.85;;;;;;;;;;5075061;28;20034;-83
2023/05/12 07:08:55;;;;;;;7.13;3.83;;;;;;;;;;5065392;28;20028;-82
2023/05/12 07:11:21;;;;;;;5.60;3.47;;;;;;;;;;5078219;28;20043;-85
2023/05/12 07:13:50;;;;;;;5.45;3.08;;;;;;;;;;5100698;28;20052;-83
2023/05/12 07:16:16;;;;;;;9.98;4.60;;;;;;;;;;5077183;28;20040;-84
2023/05/12 07:18:42;;;;;;;6.55;3.92;;;;;;;;;;5071108;28;20362;-83
2023/05/12 07:21:08;;;;;;;5.93;2.88;;;;;;;;;;5072986;28;20028;-83
2023/05/12 07:23:34;;;;;;;5.25;3.15;;;;;;;;;;5070091;28;20086;-81
2023/05/12 07:26:01;;;;;;;6.85;3.30;;;;;;;;;;5072043;28;20032;-82
2023/05/12 07:28:31;;;;;;;7.07;4.13;;;;;;;;;;5079701;28;20101;-81
2023/05/12 07:30:57;;;;;;;14.05;4.13;;;;;;;;;;5079835;28;20468;-81
2023/05/12 07:33:23;;;;;;;7.97;4.03;;;;;;;;;;5087944;28;20027;-84
2023/05/12 07:35:48;;;;;;;7.90;4.00;;;;;;;;;;5077067;28;20483;-83
2023/05/12 07:38:14;;;;;;;7.20;3.35;;;;;;;;;;5084064;28;20040;-86
2023/05/12 07:40:39;;;;;;;6.65;3.78;;;;;;;;;;5081917;28;20360;-82
2023/05/12 07:43:04;;;;;;;5.90;3.58;;;;;;;;;;5079538;28;20744;-82
2023/05/12 07:45:30;;;;;;;6.45;3.83;;;;;;;;;;5071969;28;20028;-82
2023/05/12 07:47:55;;;;;;;6.55;3.80;;;;;;;;;;5074083;28;20039;-82
2023/05/12 07:50:21;;;;;;;7.63;4.13;;;;;;;;;;5075150;28;20496;-82
2023/05/12 07:52:50;;;;;;;6.43;3.53;;;;;;;;;;5076372;28;20024;-83
2023/05/12 07:55:19;;;;;;;4.57;2.88;;;;;;;;;;5072886;28;20047;-83
2023/05/12 07:57:45;;;;;;;8.68;4.15;;;;;;;;;;5084061;28;20028;-82
2023/05/12 08:00:11;;;;;;;7.75;4.25;;;;;;;;;;5082821;28;20047;-83
2023/05/12 08:02:36;;;;;;;8.43;3.67;;;;;;;;;;5077220;28;20385;-82
2023/05/12 08:05:03;;;;;;;8.00;3.72;;;;;;;;;;5073697;28;20028;-84
2023/05/12 08:07:28;;;;;;;7.82;2.92;;;;;;;;;;5080244;28;20016;-82
2023/05/12 08:09:54;;;;;;;7.30;4.43;;;;;;;;;;5075197;28;20027;-83
2023/05/12 08:12:19;;;;;;;7.30;4.57;;;;;;;;;;5080953;28;20468;-82
2023/05/12 08:14:45;;;;;;;5.75;2.90;;;;;;;;;;5072629;28;20040;-83
2023/05/12 08:17:10;;;;;;;8.02;3.40;;;;;;;;;;5081727;28;20028;-82
2023/05/12 08:19:36;;;;;;;6.95;3.08;;;;;;;;;;5077672;28;20103;-80
2023/05/12 08:22:02;;;;;;;4.00;2.38;;;;;;;;;;5070984;28;20030;-82
2023/05/12 08:24:27;;;;;;;6.25;3.67;;;;;;;;;;5079917;28;20111;-82
2023/05/12 08:26:52;;;;;;;6.70;3.40;;;;;;;;;;5078271;28;20032;-83
2023/05/12 08:29:18;;;;;;;6.70;3.88;;;;;;;;;;5085599;28;20447;-81
2023/05/12 08:31:43;;;;;;;5.18;3.20;;;;;;;;;;5084421;28;20025;-82
2023/05/12 08:34:09;;;;;;;5.78;3.47;;;;;;;;;;5082856;28;20031;-82
2023/05/12 08:36:34;;;;;;;6.30;3.40;;;;;;;;;;5071544;28;20031;-81
2023/05/12 08:39:01;;;;;;;5.82;3.67;;;;;;;;;;5074410;28;20526;-80
2023/05/12 08:41:45;;;;;;;4.35;2.58;;;;;;;;;;5079616;28;20529;-86
2023/05/12 08:44:11;;;;;;;8.35;3.20;;;;;;;;;;5071463;28;20480;-81
2023/05/12 08:46:37;;;;;;;5.18;2.88;;;;;;;;;;5067365;28;20042;-83
2023/05/12 08:49:03;;;;;;;4.60;2.83;;;;;;;;;;5077666;28;20536;-81
2023/05/12 08:51:31;;;;;;;6.97;3.75;;;;;;;;;;5075651;28;20021;-82
2023/05/12 08:53:57;;;;;;;4.82;3.20;;;;;;;;;;5077121;28;20036;-82
2023/05/12 08:56:23;;;;;;;4.80;2.97;;;;;;;;;;5112932;27;20032;-80
2023/05/12 08:58:49;;;;;;;5.63;3.40;;;;;;;;;;5080920;28;20021;-82
2023/05/12 09:01:16;;;;;;;5.72;3.00;;;;;;;;;;5080446;28;20035;-80
2023/05/12 09:03:41;;;;;;;6.60;3.97;;;;;;;;;;5080659;28;20032;-85
2023/05/12 09:06:08;;;;;;;5.35;2.97;;;;;;;;;;5084097;28;20375;-80
2023/05/12 09:08:35;;;;;;;8.98;3.33;;;;;;;;;;5080493;28;20028;-82
2023/05/12 09:11:01;;;;;;;4.75;3.10;;;;;;;;;;5079799;28;20230;-82
2023/05/12 09:13:59;;;;;;;6.90;4.20;;;;;;;;;;5076317;28;20438;-83
2023/05/12 09:16:28;;;;;;;5.20;3.70;;;;;;;;;;5082428;28;20032;-82
2023/05/12 09:18:55;;;;;;;9.93;3.83;;;;;;;;;;5082212;28;20029;-82
2023/05/12 09:21:21;;;;;;;10.85;4.00;;;;;;;;;;5071196;28;20020;-82
2023/05/12 09:24:02;;;;;;;4.32;2.67;;;;;;;;;;5076450;28;20036;-82
2023/05/12 09:26:27;;;;;;;5.43;2.97;;;;;;;;;;5074243;28;20099;-80
2023/05/12 09:28:55;;;;;;;6.88;3.85;;;;;;;;;;5075833;28;20123;-82
2023/05/12 09:31:22;;;;;;;6.05;3.72;;;;;;;;;;5071610;28;20491;-83
2023/05/12 09:33:49;;;;;;;9.05;4.43;;;;;;;;;;5078804;28;20103;-82
2023/05/12 09:36:20;;;;;;;7.40;4.38;;;;;;;;;;5082594;28;20024;-83
2023/05/12 09:38:45;;;;;;;5.13;3.13;;;;;;;;;;5077146;28;20075;-84
2023/05/12 09:41:11;;;;;;;5.40;3.33;;;;;;;;;;5078757;28;20054;-83
2023/05/12 09:43:43;;;;;;;7.38;3.72;;;;;;;;;;5074188;28;20365;-82
2023/05/12 09:46:08;;;;;;;6.32;3.88;;;;;;;;;;5075276;28;20070;-83
2023/05/12 09:48:34;;;;;;;7.10;4.15;;;;;;;;;;5077700;28;20066;-83
2023/05/12 09:51:00;;;;;;;5.53;3.63;;;;;;;;;;5104316;27;20029;-83
2023/05/12 09:53:25;;;;;;;6.18;3.60;;;;;;;;;;5078674;28;20039;-81
2023/05/12 09:55:51;;;;;;;7.68;3.13;;;;;;;;;;5079690;28;20028;-83
2023/05/12 09:58:18;;;;;;;6.80;3.38;;;;;;;;;;5076493;28;20027;-83
2023/05/12 10:00:44;;;;;;;5.50;3.47;;;;;;;;;;5082850;28;20121;-80
2023/05/12 10:03:14;;;;;;;6.05;3.75;;;;;;;;;;5076423;28;20430;-82
2023/05/12 10:05:47;;;;;;;7.05;3.05;;;;;;;;;;5073238;28;20039;-81
2023/05/12 10:08:20;;;;;;;6.60;3.95;;;;;;;;;;5071705;28;20150;-80
2023/05/12 10:10:49;;;;;;;6.25;3.65;;;;;;;;;;5076128;28;20439;-81
2023/05/12 10:13:15;;;;;;;8.68;3.90;;;;;;;;;;5075583;28;20036;-81
2023/05/12 10:15:41;;;;;;;7.25;3.85;;;;;;;;;;5081389;28;20028;-81
2023/05/12 10:18:08;;;;;;;6.30;3.33;;;;;;;;;;5078213;28;20035;-82
2023/05/12 10:20:34;;;;;;;5.25;3.35;;;;;;;;;;5078036;28;20067;-82
2023/05/12 10:23:00;;;;;;;6.70;3.47;;;;;;;;;;5078367;28;20063;-82
2023/05/12 10:25:26;;;;;;;7.97;4.15;;;;;;;;;;5079041;28;20070;-82
2023/05/12 10:27:54;;;;;;;9.82;3.17;;;;;;;;;;5075686;28;20484;-82
2023/05/12 10:30:21;;;;;;;4.68;2.83;;;;;;;;;;5087182;28;20095;-84
2023/05/12 10:32:46;;;;;;;5.07;3.05;;;;;;;;;;5085786;28;20035;-85
2023/05/12 10:35:12;;;;;;;7.78;3.72;;;;;;;;;;5078842;28;20032;-83
2023/05/12 10:37:38;;;;;;;5.65;3.47;;;;;;;;;;5070366;28;20479;-82
2023/05/12 10:40:05;;;;;;;5.70;3.60;;;;;;;;;;5076929;28;20090;-83
2023/05/12 10:42:41;;;;;;;6.00;3.00;;;;;;;;;;5081496;28;20030;-81
2023/05/12 10:45:18;;;;;;;4.70;2.88;;;;;;;;;;5082216;28;20476;-84
2023/05/12 10:47:45;;;;;;;5.85;3.00;;;;;;;;;;5075120;28;20020;-81
2023/05/12 10:50:14;;;;;;;7.32;3.15;;;;;;;;;;5080251;28;20860;-82
2023/05/12 10:52:52;;;;;;;10.80;3.28;;;;;;;;;;5068394;28;20480;-84
2023/05/12 10:55:30;;;;;;;4.65;3.53;;;;;;;;;;5078359;28;20506;-82
2023/05/12 10:58:08;;;;;;;4.10;2.65;;;;;;;;;;5075505;28;20593;-82
2023/05/12 11:00:43;;;;;;;4.60;2.83;;;;;;;;;;5075359;28;20024;-81
2023/05/12 11:03:16;;;;;;;4.15;2.30;;;;;;;;;;5076376;28;20046;-84
2023/05/12 11:05:44;;;;;;;5.32;3.65;;;;;;;;;;5108924;27;20040;-83
2023/05/12 11:08:10;;;;;;;3.67;2.58;;;;;;;;;;5079457;28;20024;-81
2023/05/12 11:10:35;;;;;;;7.28;2.97;;;;;;;;;;5083853;28;20089;-81
2023/05/12 11:13:03;;;;;;;6.40;4.10;;;;;;;;;;5085884;28;20027;-81
2023/05/12 11:15:28;;;;;;;4.28;3.00;;;;;;;;;;5075608;28;20028;-82
2023/05/12 11:17:54;;;;;;;4.88;3.38;;;;;;;;;;5079358;28;20384;-85
2023/05/12 11:20:24;;;;;;;3.90;2.65;;;;;;;;;;5082187;28;20492;-83
2023/05/12 11:22:49;;;;;;;;;;;;;;;;;;5083480;28;20023;-82
2023/05/12 11:25:15;;;;;;;7.35;2.80;;;;;;;;;;5085926;28;19920;-81
2023/05/12 11:27:50;;;;;;;5.75;3.38;;;;;;;;;;5085807;28;20379;-81
2023/05/12 11:30:16;;;;;;;6.00;3.65;;;;;;;;;;5076380;28;20025;-81
2023/05/12 11:32:42;;;;;;;4.95;3.10;;;;;;;;;;5084685;28;20464;-82
2023/05/12 11:35:18;;;;;;;4.25;2.90;;;;;;;;;;5083502;28;20161;-82
2023/05/12 11:37:44;;;;;;;4.43;3.00;;;;;;;;;;5078347;28;20047;-83
2023/05/12 11:40:14;;;;;;;5.15;3.15;;;;;;;;;;5084203;28;20024;-81
2023/05/12 11:42:41;;;;;;;5.22;3.15;;;;;;;;;;5084179;28;20480;-86
2023/05/12 11:45:18;;;;;;;4.93;2.95;;;;;;;;;;5087733;28;20028;-85
2023/05/12 11:47:43;;;;;;;6.72;3.55;;;;;;;;;;5078636;28;20402;-85
2023/05/12 11:50:09;;;;;;;7.65;4.50;;;;;;;;;;5081644;28;20034;-86
2023/05/12 11:52:34;;;;;;;6.38;3.05;;;;;;;;;;5074256;28;20025;-83
2023/05/12 11:55:00;;;;;;;6.93;3.78;;;;;;;;;;5081627;28;20397;-83
2023/05/12 11:57:27;;;;;;;5.05;3.22;;;;;;;;;;5087277;28;20061;-81
2023/05/12 11:59:57;;;;;;;9.57;4.10;;;;;;;;;;5076983;28;20081;-82
2023/05/12 12:02:22;;;;;;;4.80;3.28;;;;;;;;;;5081862;28;20039;-84
2023/05/12 12:04:48;;;;;;;5.57;3.13;;;;;;;;;;5077844;28;20029;-82
2023/05/12 12:07:13;;;;;;;8.48;4.90;;;;;;;;;;5074555;28;20477;-81
2023/05/12 12:09:40;;;;;;;5.15;3.38;;;;;;;;;;5074851;28;20337;-83
2023/05/12 12:12:07;;;;;;;5.85;3.72;;;;;;;;;;5076918;28;20116;-81
2023/05/12 12:14:34;;;;;;;6.38;3.92;;;;;;;;;;5081347;28;20024;-81
2023/05/12 12:17:00;;;;;;;5.88;2.92;;;;;;;;;;5078726;28;20028;-81
2023/05/12 12:19:26;;;;;;;5.22;3.08;;;;;;;;;;5074787;28;20119;-82
2023/05/12 12:21:55;;;;;;;5.25;3.30;;;;;;;;;;5076118;28;20032;-81
2023/05/12 12:24:21;;;;;;;6.87;3.67;;;;;;;;;;5086051;28;20107;-82
2023/05/12 12:26:47;;;;;;;8.18;3.97;;;;;;;;;;5072477;28;20103;-81
2023/05/12 12:29:13;;;;;;;7.70;3.20;;;;;;;;;;5072022;28;20020;-82
2023/05/12 12:31:39;;;;;;;9.13;4.32;;;;;;;;;;5083837;28;20479;-82
2023/05/12 12:34:04;;;;;;;7.53;4.18;;;;;;;;;;5072957;28;20059;-83
2023/05/12 12:36:31;;;;;;;5.60;3.50;;;;;;;;;;5081091;28;20072;-83
2023/05/12 12:38:57;;;;;;;6.18;3.40;;;;;;;;;;5078628;28;20017;-82
2023/05/12 12:41:22;;;;;;;6.22;3.58;;;;;;;;;;5073705;28;20036;-80
2023/05/12 12:43:48;;;;;;;6.53;3.47;;;;;;;;;;5075249;28;20477;-83
2023/05/12 12:46:13;;;;;;;8.80;4.18;;;;;;;;;;5082215;28;20036;-82
2023/05/12 12:48:39;;;;;;;7.05;4.28;;;;;;;;;;5111386;27;20174;-83
2023/05/12 12:51:04;;;;;;;11.02;5.40;;;;;;;;;;5082612;28;20536;-83
2023/05/12 12:53:30;;;;;;;7.45;4.18;;;;;;;;;;5086001;28;20032;-84
2023/05/12 12:55:55;;;;;;;4.35;2.92;;;;;;;;;;5080218;28;20044;-84
2023/05/12 12:58:21;;;;;;;5.80;3.65;;;;;;;;;;5079131;28;20112;-81
2023/05/12 13:00:46;;;;;;;8.07;3.28;;;;;;;;;;5078716;28;20021;-85
2023/05/12 13:03:12;;;;;;;4.80;2.78;;;;;;;;;;5068355;28;20032;-83
2023/05/12 13:05:37;;;;;;;5.78;3.10;;;;;;;;;;5071651;28;20031;-85
2023/05/12 13:08:03;;;;;;;3.97;2.92;;;;;;;;;;5078938;28;20099;-83
2023/05/12 13:10:29;;;;;;;3.63;2.42;;;;;;;;;;5082955;28;20081;-83
2023/05/12 13:12:54;;;;;;;4.75;2.72;;;;;;;;;;5077606;28;20024;-83
2023/05/12 13:15:20;;;;;;;4.40;2.88;;;;;;;;;;5077853;28;20056;-84
2023/05/12 13:17:45;;;;;;;3.80;2.42;;;;;;;;;;5074563;28;20025;-83
2023/05/12 13:20:12;;;;;;;4.68;2.47;;;;;;;;;;5082964;28;20024;-83
2023/05/12 13:22:38;;;;;;;4.55;2.38;;;;;;;;;;5074347;28;20048;-83
2023/05/12 13:25:06;;;;;;;4.57;2.72;;;;;;;;;;5078301;28;20432;-84
2023/05/12 13:27:32;;;;;;;5.05;2.83;;;;;;;;;;5086092;28;20060;-84
2023/05/12 13:29:58;;;;;;;4.00;2.78;;;;;;;;;;5081679;28;20507;-85
2023/05/12 13:32:23;;;;;;;4.50;2.65;;;;;;;;;;5078748;28;20031;-82
2023/05/12 13:34:49;;;;;;;3.75;2.50;;;;;;;;;;5081317;28;20384;-81
2023/05/12 13:37:15;;;;;;;4.40;2.25;;;;;;;;;;5083626;28;20063;-83
2023/05/12 13:39:41;;;;;;;6.55;2.70;;;;;;;;;;5082893;28;20036;-82
2023/05/12 13:42:06;;;;;;;3.78;2.72;;;;;;;;;;5078793;28;20090;-82
2023/05/12 13:44:32;;;;;;;4.65;2.75;;;;;;;;;;5075252;28;20070;-82
2023/05/12 13:46:57;;;;;;;4.68;2.63;;;;;;;;;;5076156;28;20388;-80
2023/05/12 13:49:22;;;;;;;4.15;2.13;;;;;;;;;;5074967;28;20024;-81
2023/05/12 13:51:48;;;;;;;4.30;2.47;;;;;;;;;;5078504;28;20031;-82
2023/05/12 13:54:13;;;;;;;3.88;2.28;;;;;;;;;;5082151;28;20025;-82
2023/05/12 13:56:39;;;;;;;3.25;1.77;;;;;;;;;;5084339;28;20032;-82
2023/05/12 13:59:04;;;;;;;6.55;3.05;;;;;;;;;;5073715;28;20522;-82
2023/05/12 14:01:30;;;;;;;3.53;2.50;;;;;;;;;;5079039;28;20103;-83
2023/05/12 14:03:56;;;;;;;3.95;2.65;;;;;;;;;;5083399;28;20074;-82
2023/05/12 14:06:21;;;;;;;4.05;2.00;;;;;;;;;;5075848;28;20563;-81
2023/05/12 14:08:47;;;;;;;3.13;2.30;;;;;;;;;;5080375;28;20073;-81
2023/05/12 14:11:12;;;;;;;4.03;2.15;;;;;;;;;;5078224;28;20107;-82
2023/05/12 14:13:38;;;;;;;4.93;2.63;;;;;;;;;;5081033;28;20092;-83
2023/05/12 14:16:04;;;;;;;4.93;2.30;;;;;;;;;;5073659;28;20031;-82
2023/05/12 14:18:29;;;;;;;3.22;2.33;;;;;;;;;;5071234;28;20142;-81
2023/05/12 14:20:55;;;;;;;3.38;2.25;;;;;;;;;;5084383;28;20048;-82
2023/05/12 14:23:20;;;;;;;4.05;2.58;;;;;;;;;;5079157;28;20111;-82
2023/05/12 14:25:46;;;;;;;3.47;2.40;;;;;;;;;;5076724;28;20024;-84
2023/05/12 14:28:11;;;;;;;5.15;2.55;;;;;;;;;;5083523;28;20430;-82
2023/05/12 14:30:37;;;;;;;5.93;2.42;;;;;;;;;;5083838;28;20024;-83
2023/05/12 14:33:02;;;;;;;3.47;2.20;;;;;;;;;;5075850;28;20020;-82
2023/05/12 14:35:28;;;;;;;3.30;2.20;;;;;;;;;;5079622;28;20028;-82
2023/05/12 14:37:55;;;;;;;4.30;2.60;;;;;;;;;;5081792;28;20058;-82
2023/05/12 14:40:21;;;;;;;3.30;1.85;;;;;;;;;;5073874;28;20575;-81